Time;durP1;ratioP1;P1;durP2;ratioP2;P2;SDS_P1;SDS_P2;PMS_P1;PMS_P2;Temp;Humidity;BMP_temperature;BMP_pressure;BME280_temperature;BME280_humidity;BME280_pressure;Samples;Min_cycle;Max_cycle;Signal;HPM_P1;HPM_P2
2022/08/24 00:00:20;;;;;;;1.43;0.90;;;22.60;92.50;;;;;;6179073;23;20416;-77
2022/08/24 00:02:47;;;;;;;1.50;0.90;;;22.50;92.90;;;;;;6180262;23;20428;-77
2022/08/24 00:05:15;;;;;;;1.47;0.87;;;22.50;92.80;;;;;;6181553;23;20444;-76
2022/08/24 00:07:42;;;;;;;1.50;0.90;;;22.50;93.50;;;;;;6168579;23;20982;-76
2022/08/24 00:10:12;;;;;;;1.47;0.90;;;22.50;94.00;;;;;;6181651;23;20423;-77
2022/08/24 00:12:39;;;;;;;1.50;0.90;;;22.50;93.90;;;;;;6164784;23;20538;-77
2022/08/24 00:15:08;;;;;;;1.43;0.90;;;22.40;93.20;;;;;;6191321;23;20440;-77
2022/08/24 00:17:36;;;;;;;1.47;0.90;;;22.40;94.20;;;;;;6166928;23;20498;-77
2022/08/24 00:20:04;;;;;;;1.50;0.90;;;22.40;94.90;;;;;;6181172;23;20478;-77
2022/08/24 00:22:30;;;;;;;1.47;0.90;;;22.40;94.70;;;;;;6164684;23;20443;-77
2022/08/24 00:24:58;;;;;;;1.50;0.90;;;22.40;94.90;;;;;;6181208;23;20969;-77
2022/08/24 00:27:26;;;;;;;1.50;0.83;;;22.40;94.50;;;;;;6164298;23;20543;-77
2022/08/24 00:29:54;;;;;;;1.50;1.00;;;22.40;95.10;;;;;;6179655;23;20428;-77
2022/08/24 00:32:21;;;;;;;1.50;0.90;;;22.30;95.30;;;;;;6164420;23;20532;-77
2022/08/24 00:34:48;;;;;;;1.50;0.90;;;22.30;95.70;;;;;;6181367;23;20444;-77
2022/08/24 00:37:15;;;;;;;1.40;0.90;;;22.30;95.60;;;;;;6165395;23;20499;-77
2022/08/24 00:39:42;;;;;;;1.47;0.90;;;22.30;95.80;;;;;;6178341;23;20813;-77
2022/08/24 00:42:10;;;;;;;1.43;0.90;;;22.20;95.00;;;;;;6165043;23;21020;-77
2022/08/24 00:44:38;;;;;;;1.47;0.90;;;22.20;94.60;;;;;;6180364;23;20458;-77
2022/08/24 00:47:13;;;;;;;1.43;0.90;;;22.20;95.80;;;;;;6165670;23;20502;-77
2022/08/24 00:49:45;;;;;;;1.47;0.90;;;22.20;95.50;;;;;;6191298;23;20435;-77
2022/08/24 00:52:17;;;;;;;1.47;0.90;;;22.10;96.40;;;;;;6168713;23;20446;-77
2022/08/24 00:54:46;;;;;;;1.43;0.90;;;22.10;95.90;;;;;;6181004;23;20450;-77
2022/08/24 00:57:17;;;;;;;1.47;0.90;;;22.10;96.60;;;;;;6163908;23;20571;-77
2022/08/24 00:59:50;;;;;;;1.47;0.87;;;22.10;97.00;;;;;;6180184;23;20430;-76
2022/08/24 01:02:26;;;;;;;1.50;0.90;;;22.00;96.40;;;;;;6179690;23;20589;-77
2022/08/24 01:04:56;;;;;;;1.43;0.90;;;22.00;96.00;;;;;;6180162;23;20447;-77
2022/08/24 01:07:24;;;;;;;1.43;0.90;;;22.00;96.10;;;;;;6163092;23;20762;-77
2022/08/24 01:09:52;;;;;;;1.43;0.90;;;21.90;95.20;;;;;;6179993;23;20791;-77
2022/08/24 01:12:19;;;;;;;1.43;0.90;;;21.90;95.10;;;;;;6166952;23;20435;-77
2022/08/24 01:14:48;;;;;;;1.47;0.90;;;21.90;96.00;;;;;;6167206;23;20526;-77
2022/08/24 01:20:02;;;;;;;1.47;0.90;;;21.80;96.10;;;;;;6189689;23;20450;-75
2022/08/24 01:22:55;;;;;;;1.47;0.90;;;21.80;96.20;;;;;;6166183;23;20451;-75
2022/08/24 01:25:26;;;;;;;1.40;0.90;;;21.80;95.70;;;;;;6179976;23;21002;-76
2022/08/24 01:27:56;;;;;;;1.43;0.90;;;21.80;95.70;;;;;;6163195;23;20457;-76
2022/08/24 01:30:23;;;;;;;1.50;0.90;;;21.70;96.60;;;;;;6179800;23;20470;-77
2022/08/24 01:32:55;;;;;;;1.47;0.90;;;21.70;96.00;;;;;;6164640;23;20801;-76
2022/08/24 01:35:22;;;;;;;1.43;0.90;;;21.60;96.00;;;;;;6190351;23;20519;-76
2022/08/24 01:37:51;;;;;;;1.43;0.90;;;21.60;96.00;;;;;;6180653;23;20424;-76
2022/08/24 01:40:19;;;;;;;1.43;0.90;;;21.60;95.60;;;;;;6180416;23;20470;-76
2022/08/24 01:42:52;;;;;;;1.47;0.87;;;21.60;96.10;;;;;;6179775;23;20443;-76
2022/08/24 01:45:20;;;;;;;1.47;0.90;;;21.50;96.10;;;;;;6179865;23;20451;-76
2022/08/24 01:47:47;;;;;;;1.43;0.90;;;21.50;96.20;;;;;;6163831;23;20474;-76
2022/08/24 01:50:14;;;;;;;1.47;0.90;;;21.50;96.70;;;;;;6180202;23;20514;-76
2022/08/24 01:52:43;;;;;;;1.43;0.90;;;21.50;97.40;;;;;;6163177;23;20569;-76
2022/08/24 01:55:14;;;;;;;1.50;1.00;;;21.50;97.30;;;;;;6179631;23;20491;-76
2022/08/24 01:57:42;;;;;;;1.43;0.90;;;21.50;97.20;;;;;;6163435;23;20498;-76
2022/08/24 02:00:14;;;;;;;1.40;0.90;;;21.50;96.80;;;;;;6178646;23;20455;-76
2022/08/24 02:02:43;;;;;;;1.50;1.10;;;21.50;96.60;;;;;;6162605;23;20519;-76
2022/08/24 02:05:11;;;;;;;1.47;0.90;;;21.50;97.40;;;;;;6180400;23;20868;-76
2022/08/24 02:07:38;;;;;;;1.43;0.90;;;21.50;98.00;;;;;;6164651;23;20478;-76
2022/08/24 02:10:07;;;;;;;1.47;0.90;;;21.40;97.70;;;;;;6179408;23;20454;-76
2022/08/24 02:12:35;;;;;;;1.43;0.90;;;21.40;97.40;;;;;;6163322;23;20943;-76
2022/08/24 02:15:02;;;;;;;1.47;0.90;;;21.40;97.90;;;;;;6180233;23;20853;-76
2022/08/24 02:17:31;;;;;;;1.50;0.90;;;21.30;98.10;;;;;;6163279;23;20448;-77
2022/08/24 02:19:58;;;;;;;1.47;0.90;;;21.30;97.90;;;;;;6178922;23;20493;-76
2022/08/24 02:22:25;;;;;;;1.47;0.90;;;21.30;97.50;;;;;;6162871;23;20447;-76
2022/08/24 02:24:52;;;;;;;1.43;0.90;;;21.30;96.80;;;;;;6189225;23;20544;-76
2022/08/24 02:27:20;;;;;;;1.47;0.90;;;21.20;98.20;;;;;;6163493;23;20823;-76
2022/08/24 02:29:47;;;;;;;1.43;0.90;;;21.20;97.50;;;;;;6181122;23;20420;-76
2022/08/24 02:32:14;;;;;;;1.47;0.90;;;21.20;97.50;;;;;;6178814;23;20454;-76
2022/08/24 02:34:43;;;;;;;1.50;0.90;;;21.20;97.80;;;;;;6190140;23;20459;-76
2022/08/24 02:37:10;;;;;;;1.43;0.90;;;21.10;97.70;;;;;;6163899;23;20798;-76
2022/08/24 02:39:37;;;;;;;1.47;0.90;;;21.10;98.20;;;;;;6179716;23;20424;-75
2022/08/24 02:42:05;;;;;;;1.43;0.90;;;21.10;98.20;;;;;;6167308;23;20447;-75
2022/08/24 02:44:32;;;;;;;1.50;0.90;;;21.10;98.20;;;;;;6180069;23;20454;-75
2022/08/24 02:46:59;;;;;;;1.50;0.90;;;21.00;98.20;;;;;;6163013;23;21005;-75
2022/08/24 02:49:26;;;;;;;1.43;0.90;;;21.00;98.20;;;;;;6178603;23;20427;-75
2022/08/24 02:51:54;;;;;;;1.50;0.90;;;21.00;98.20;;;;;;6163460;23;20456;-75
2022/08/24 02:54:22;;;;;;;1.47;0.90;;;21.00;98.20;;;;;;6178286;23;20420;-75
2022/08/24 02:56:49;;;;;;;1.43;0.90;;;20.90;97.90;;;;;;6162183;23;20468;-75
2022/08/24 02:59:17;;;;;;;1.47;0.90;;;20.90;97.70;;;;;;6177579;23;20428;-75
2022/08/24 03:01:44;;;;;;;1.60;1.10;;;20.90;97.50;;;;;;6163528;23;20993;-75
2022/08/24 03:04:11;;;;;;;1.43;0.90;;;20.90;98.20;;;;;;6178474;23;20475;-75
2022/08/24 03:06:39;;;;;;;1.43;0.90;;;20.80;97.80;;;;;;6163724;23;20518;-75
2022/08/24 03:09:07;;;;;;;1.43;0.90;;;20.80;97.50;;;;;;6178820;23;20815;-75
2022/08/24 03:11:34;;;;;;;1.40;0.90;;;20.80;98.10;;;;;;6178826;23;20430;-75
2022/08/24 03:14:01;;;;;;;1.47;0.90;;;20.80;98.20;;;;;;6177604;23;20422;-75
2022/08/24 03:16:30;;;;;;;1.50;0.90;;;20.70;98.20;;;;;;6178585;23;20446;-75
2022/08/24 03:18:57;;;;;;;1.40;0.90;;;20.70;98.20;;;;;;6178536;23;20479;-75
2022/08/24 03:21:25;;;;;;;1.40;0.90;;;20.70;98.20;;;;;;6163959;23;20458;-75
2022/08/24 03:23:52;;;;;;;2.73;2.00;;;20.60;98.20;;;;;;6177615;23;20487;-76
2022/08/24 03:26:21;;;;;;;1.47;0.90;;;20.60;98.20;;;;;;6171556;23;20854;-76
2022/08/24 03:28:48;;;;;;;1.43;0.90;;;20.60;98.20;;;;;;6177509;23;20802;-75
2022/08/24 03:31:16;;;;;;;1.50;0.90;;;20.60;98.20;;;;;;6164673;23;20515;-76
2022/08/24 03:33:43;;;;;;;1.43;0.90;;;20.60;98.20;;;;;;6178725;23;20799;-75
2022/08/24 03:36:10;;;;;;;1.50;1.00;;;20.60;98.20;;;;;;6178771;23;20974;-76
2022/08/24 03:38:37;;;;;;;1.40;0.90;;;20.60;98.20;;;;;;6179655;23;20451;-75
2022/08/24 03:41:04;;;;;;;1.50;0.90;;;20.60;98.20;;;;;;6164264;23;20424;-75
2022/08/24 03:43:45;;;;;;;1.50;0.90;;;20.60;98.20;;;;;;6179239;23;20444;-76
2022/08/24 03:46:13;;;;;;;1.40;0.90;;;20.60;98.20;;;;;;6164148;23;20524;-76
2022/08/24 03:48:41;;;;;;;1.40;0.90;;;20.60;98.20;;;;;;6177659;23;20776;-76
2022/08/24 03:51:12;;;;;;;1.43;0.90;;;20.50;98.20;;;;;;6179448;23;20432;-75
2022/08/24 03:53:39;;;;;;;1.50;0.90;;;20.50;98.20;;;;;;6178607;23;20519;-75
2022/08/24 03:56:06;;;;;;;1.40;0.90;;;20.50;98.20;;;;;;6163054;23;20442;-76
2022/08/24 03:58:35;;;;;;;1.50;1.00;;;20.50;98.20;;;;;;6178084;23;20855;-76
2022/08/24 04:01:03;;;;;;;1.47;0.90;;;20.50;98.20;;;;;;6179900;23;20420;-76
2022/08/24 04:03:30;;;;;;;1.47;0.90;;;20.40;98.20;;;;;;6179205;23;20451;-76
2022/08/24 04:05:57;;;;;;;1.43;0.90;;;20.40;98.20;;;;;;6163340;23;20444;-76
2022/08/24 04:08:24;;;;;;;1.47;0.90;;;20.40;98.20;;;;;;6177584;23;21010;-75
2022/08/24 04:10:53;;;;;;;1.50;0.90;;;20.40;98.20;;;;;;6165208;23;20503;-75
2022/08/24 04:13:20;;;;;;;1.40;0.90;;;20.40;98.20;;;;;;6175569;23;20424;-76
2022/08/24 04:15:51;;;;;;;1.47;0.90;;;20.30;98.20;;;;;;6166076;23;21017;-75
2022/08/24 04:18:19;;;;;;;1.40;0.90;;;20.30;98.20;;;;;;6175073;23;20762;-75
2022/08/24 04:20:47;;;;;;;1.43;0.90;;;20.30;98.20;;;;;;6179806;23;20454;-75
2022/08/24 04:23:17;;;;;;;1.47;0.90;;;20.30;98.20;;;;;;6180932;23;20428;-76
2022/08/24 04:25:47;;;;;;;1.50;0.90;;;20.30;98.20;;;;;;6190421;23;21080;-76
2022/08/24 04:28:17;;;;;;;1.47;0.90;;;20.30;98.20;;;;;;6162992;23;20596;-77
2022/08/24 04:30:47;;;;;;;1.50;0.90;;;20.30;98.20;;;;;;6179772;23;20420;-76
2022/08/24 04:33:16;;;;;;;1.47;0.90;;;20.20;98.20;;;;;;6162981;23;20432;-77
2022/08/24 04:35:47;;;;;;;1.47;0.90;;;20.20;98.20;;;;;;6179770;23;20966;-76
2022/08/24 04:38:15;;;;;;;1.40;0.90;;;20.20;98.20;;;;;;6161868;23;20431;-77
2022/08/24 04:40:44;;;;;;;1.50;0.90;;;20.10;98.20;;;;;;6179747;23;20423;-76
2022/08/24 04:43:13;;;;;;;1.43;0.90;;;20.00;98.20;;;;;;6163741;23;20482;-76
2022/08/24 04:45:41;;;;;;;1.50;1.00;;;20.00;98.20;;;;;;6178145;23;20448;-77
2022/08/24 04:48:09;;;;;;;1.50;0.90;;;20.00;98.20;;;;;;6177072;23;20428;-76
2022/08/24 04:50:39;;;;;;;1.50;0.90;;;20.00;98.20;;;;;;6181819;23;20451;-76
2022/08/24 04:53:07;;;;;;;1.50;0.90;;;20.00;98.20;;;;;;6163791;23;20447;-76
2022/08/24 04:55:42;;;;;;;1.43;0.90;;;20.00;98.20;;;;;;6190489;23;20436;-76
2022/08/24 04:58:10;;;;;;;1.50;0.90;;;20.00;98.20;;;;;;6179022;23;20418;-77
2022/08/24 05:00:37;;;;;;;1.50;0.90;;;20.00;98.20;;;;;;6179293;23;20455;-76
2022/08/24 05:03:04;;;;;;;1.50;0.90;;;20.10;98.20;;;;;;6154551;23;20802;-76
2022/08/24 05:05:32;;;;;;;1.40;0.90;;;20.10;98.20;;;;;;6179547;23;20448;-76
2022/08/24 05:08:01;;;;;;;1.50;0.90;;;20.10;98.20;;;;;;6163434;23;20467;-76
2022/08/24 05:10:31;;;;;;;1.50;0.90;;;20.10;98.20;;;;;;6181534;23;20482;-76
2022/08/24 05:12:59;;;;;;;1.50;0.90;;;20.10;98.20;;;;;;6165259;23;20458;-77
2022/08/24 05:15:26;;;;;;;1.50;0.90;;;20.10;98.20;;;;;;6180862;23;20978;-77
2022/08/24 05:17:53;;;;;;;1.47;0.90;;;20.10;98.20;;;;;;6163748;23;20447;-77
2022/08/24 05:20:21;;;;;;;1.50;0.90;;;20.20;98.20;;;;;;6186064;23;20424;-77
2022/08/24 05:22:55;;;;;;;1.50;0.90;;;20.20;98.20;;;;;;6176321;23;20470;-77
2022/08/24 05:25:23;;;;;;;1.50;0.90;;;20.20;98.20;;;;;;6187162;23;20510;-78
2022/08/24 05:27:51;;;;;;;1.47;0.90;;;20.20;98.20;;;;;;6164724;23;20447;-78
2022/08/24 05:30:18;;;;;;;1.43;0.90;;;20.30;98.20;;;;;;6189890;23;20481;-78
2022/08/24 05:32:46;;;;;;;1.40;0.90;;;20.30;98.20;;;;;;6164656;23;20448;-77
2022/08/24 05:35:13;;;;;;;1.50;0.90;;;20.40;98.20;;;;;;6179912;23;20439;-77
2022/08/24 05:37:48;;;;;;;1.50;0.90;;;20.50;98.20;;;;;;6165752;23;21076;-78
2022/08/24 05:40:18;;;;;;;1.50;0.90;;;20.60;98.20;;;;;;6197023;23;20798;-78
2022/08/24 05:42:48;;;;;;;1.43;0.90;;;20.70;98.20;;;;;;6170764;23;20962;-78
2022/08/24 05:45:15;;;;;;;1.40;0.90;;;20.80;98.20;;;;;;6196975;23;20510;-77
2022/08/24 05:47:43;;;;;;;1.47;0.90;;;20.90;98.20;;;;;;6172539;23;20452;-77
2022/08/24 05:50:11;;;;;;;1.50;0.90;;;21.10;98.20;;;;;;6186776;23;20937;-76
2022/08/24 05:52:46;;;;;;;1.50;0.90;;;21.20;98.20;;;;;;6197261;23;20875;-78
2022/08/24 05:55:14;;;;;;;1.47;0.90;;;21.40;98.20;;;;;;6198069;23;20439;-78
2022/08/24 05:57:43;;;;;;;1.47;0.90;;;21.50;98.20;;;;;;6173804;23;20475;-78
2022/08/24 06:00:13;;;;;;;1.43;0.90;;;21.80;98.20;;;;;;6196479;23;20477;-77
2022/08/24 06:02:42;;;;;;;1.47;0.90;;;22.00;98.20;;;;;;6172549;23;20516;-79
2022/08/24 06:05:11;;;;;;;1.50;0.90;;;22.20;98.20;;;;;;6197136;23;21016;-78
2022/08/24 06:07:38;;;;;;;1.50;0.90;;;22.30;98.20;;;;;;6172793;23;20448;-78
2022/08/24 06:10:06;;;;;;;1.50;0.90;;;22.50;98.20;;;;;;6178669;23;20424;-78
2022/08/24 06:12:33;;;;;;;1.50;0.90;;;22.70;97.70;;;;;;6162496;23;20530;-78
2022/08/24 06:15:00;;;;;;;1.50;0.90;;;22.90;97.00;;;;;;6179060;23;20443;-78
2022/08/24 06:17:30;;;;;;;1.70;1.43;;;23.00;95.50;;;;;;6178761;23;20424;-79
2022/08/24 06:19:57;;;;;;;1.47;0.90;;;23.10;95.50;;;;;;6178972;23;20530;-79
2022/08/24 06:22:25;;;;;;;1.47;0.90;;;23.30;95.30;;;;;;6164201;23;20443;-78
2022/08/24 06:27:36;;;;;;;1.50;1.10;;;23.50;93.60;;;;;;6161409;23;20566;-79
2022/08/24 06:30:08;;;;;;;1.50;0.80;;;23.70;91.00;;;;;;6179090;23;20446;-79
2022/08/24 06:32:37;;;;;;;1.70;1.60;;;23.80;89.90;;;;;;6162920;23;20483;-78
2022/08/24 06:35:06;;;;;;;1.50;0.90;;;23.90;86.70;;;;;;6180219;23;20436;-79
2022/08/24 06:37:34;;;;;;;1.40;0.83;;;24.10;86.90;;;;;;6164873;23;20451;-79
2022/08/24 06:40:01;;;;;;;1.47;0.90;;;24.30;85.30;;;;;;6179159;23;20420;-79
2022/08/24 06:42:29;;;;;;;1.43;0.90;;;24.40;83.80;;;;;;6163989;23;20826;-79
2022/08/24 06:44:56;;;;;;;1.47;0.90;;;24.50;82.60;;;;;;6180648;23;21053;-79
2022/08/24 06:47:23;;;;;;;1.47;0.87;;;24.60;83.00;;;;;;6165022;23;20455;-77
2022/08/24 06:49:52;;;;;;;1.60;1.10;;;24.70;80.80;;;;;;6189188;23;20479;-79
2022/08/24 06:52:19;;;;;;;1.50;0.90;;;24.80;80.40;;;;;;6163535;23;20534;-77
2022/08/24 06:54:46;;;;;;;1.50;0.90;;;24.90;80.20;;;;;;6179822;23;20502;-79
2022/08/24 06:57:13;;;;;;;1.40;0.87;;;24.90;80.00;;;;;;6166970;23;21022;-79
2022/08/24 06:59:41;;;;;;;1.50;1.00;;;25.00;80.40;;;;;;6177427;23;20456;-79
2022/08/24 07:02:11;;;;;;;1.50;0.90;;;25.00;80.70;;;;;;6162866;23;21087;-78
2022/08/24 07:04:39;;;;;;;1.50;0.83;;;25.00;80.90;;;;;;6178862;23;20696;-79
2022/08/24 07:07:08;;;;;;;1.47;0.80;;;25.10;80.90;;;;;;6162339;23;20448;-79
2022/08/24 07:09:35;;;;;;;2.07;1.43;;;25.40;81.00;;;;;;6177462;23;20482;-79
2022/08/24 07:12:03;;;;;;;1.50;1.00;;;25.60;80.10;;;;;;6162836;23;21010;-78
2022/08/24 07:14:31;;;;;;;1.50;0.80;;;25.80;78.60;;;;;;6178066;23;20879;-79
2022/08/24 07:16:57;;;;;;;1.50;0.90;;;25.80;76.20;;;;;;6161995;23;20455;-79
2022/08/24 07:19:25;;;;;;;1.50;0.80;;;26.00;77.90;;;;;;6177846;23;20431;-78
2022/08/24 07:21:58;;;;;;;1.53;0.97;;;26.10;76.80;;;;;;6162496;23;20448;-79
2022/08/24 07:24:27;;;;;;;1.80;1.20;;;26.30;75.90;;;;;;6191359;23;20451;-79
2022/08/24 07:26:54;;;;;;;1.50;0.87;;;26.50;75.70;;;;;;6162940;23;20458;-79
2022/08/24 07:29:23;;;;;;;1.50;0.90;;;26.50;75.90;;;;;;6189470;23;20458;-79
2022/08/24 07:31:51;;;;;;;1.50;0.90;;;26.50;75.60;;;;;;6163802;23;20448;-79
2022/08/24 07:34:18;;;;;;;1.47;0.80;;;26.70;76.20;;;;;;6177980;23;20438;-80
2022/08/24 07:36:47;;;;;;;1.50;0.90;;;26.90;75.70;;;;;;6164597;23;21075;-79
2022/08/24 07:39:14;;;;;;;1.50;0.90;;;27.00;75.80;;;;;;6185643;23;21048;-80
2022/08/24 07:41:45;;;;;;;1.50;0.90;;;27.20;74.90;;;;;;6169783;23;20915;-77
2022/08/24 07:44:16;;;;;;;1.43;0.80;;;27.30;73.30;;;;;;6178265;23;20426;-79
2022/08/24 07:46:43;;;;;;;1.50;0.80;;;27.30;74.20;;;;;;6160964;23;20447;-78
2022/08/24 07:49:11;;;;;;;1.47;0.87;;;27.40;74.80;;;;;;6176297;23;20419;-78
2022/08/24 07:51:39;;;;;;;1.50;0.90;;;27.50;74.40;;;;;;6167827;23;20851;-80
2022/08/24 07:54:06;;;;;;;1.50;0.90;;;27.70;73.10;;;;;;6178979;23;20837;-80
2022/08/24 07:56:33;;;;;;;1.47;0.80;;;27.90;72.20;;;;;;6173769;23;20451;-82
2022/08/24 07:59:04;;;;;;;1.50;0.90;;;28.00;72.60;;;;;;6183189;23;20422;-82
2022/08/24 08:01:41;;;;;;;1.47;0.80;;;28.10;71.70;;;;;;6176578;23;20754;-82
2022/08/24 08:04:08;;;;;;;1.47;0.80;;;28.30;71.80;;;;;;6181915;23;20800;-82
2022/08/24 08:06:35;;;;;;;1.50;0.90;;;28.50;70.50;;;;;;6167527;23;20447;-77
2022/08/24 08:09:09;;;;;;;1.50;0.80;;;28.60;69.00;;;;;;6178471;23;20460;-82
2022/08/24 08:11:36;;;;;;;1.47;0.83;;;28.70;69.60;;;;;;6166128;23;20479;-78
2022/08/24 08:14:05;;;;;;;1.47;0.80;;;28.80;68.90;;;;;;6180732;23;20695;-79
2022/08/24 08:16:33;;;;;;;1.40;0.80;;;28.90;68.30;;;;;;6166238;23;20535;-79
2022/08/24 08:19:00;;;;;;;1.50;0.90;;;29.00;68.20;;;;;;6194001;23;20431;-78
2022/08/24 08:24:18;;;;;;;1.50;1.00;;;29.20;67.90;;;;;;6185900;23;20914;-79
2022/08/24 08:27:15;;;;;;;1.47;0.97;;;29.30;67.60;;;;;;6169601;23;20478;-81
2022/08/24 08:30:16;;;;;;;1.47;0.80;;;29.50;67.10;;;;;;6201624;23;20424;-79
2022/08/24 08:33:08;;;;;;;1.40;0.80;;;29.70;66.90;;;;;;6177708;23;20518;-80
2022/08/24 08:35:37;;;;;;;4.53;1.47;;;29.80;66.40;;;;;;6198002;23;20490;-79
2022/08/24 08:38:06;;;;;;;1.47;0.80;;;30.00;65.70;;;;;;6170868;23;20447;-79
2022/08/24 08:40:47;;;;;;;1.47;0.90;;;30.10;66.60;;;;;;6194490;23;20422;-80
2022/08/24 08:43:30;;;;;;;1.50;0.90;;;30.20;65.40;;;;;;6171072;23;20438;-80
2022/08/24 08:46:14;;;;;;;1.40;0.80;;;30.40;66.30;;;;;;6176425;23;20458;-80
2022/08/24 08:49:07;;;;;;;1.47;0.80;;;30.60;65.20;;;;;;6181291;23;20439;-79
2022/08/24 08:52:12;;;;;;;1.40;0.80;;;30.70;63.50;;;;;;6166777;23;20911;-84
2022/08/24 08:54:50;;;;;;;1.47;0.80;;;30.80;64.30;;;;;;6181682;23;20462;-80
2022/08/24 08:57:35;;;;;;;1.43;0.80;;;30.90;64.50;;;;;;6166981;23;20447;-79
2022/08/24 09:00:11;;;;;;;1.40;0.80;;;31.00;65.00;;;;;;6185423;23;20482;-78
2022/08/24 09:09:58;;;;;;;1.50;0.80;;;31.70;63.40;;;;;;6136176;23;20423;-80
2022/08/24 09:12:38;;;;;;;1.47;0.80;;;31.80;62.60;;;;;;6169574;23;20471;-80
2022/08/24 09:15:20;;;;;;;1.47;0.80;;;32.00;63.90;;;;;;6185670;23;20454;-78
2022/08/24 09:18:23;;;;;;;1.43;0.80;;;32.20;62.50;;;;;;6164012;23;20514;-83
2022/08/24 09:21:03;;;;;;;1.50;0.80;;;32.20;62.40;;;;;;6165641;23;20742;-80
2022/08/24 09:23:38;;;;;;;1.50;0.80;;;32.20;62.50;;;;;;6181209;23;20426;-80
2022/08/24 09:26:16;;;;;;;1.40;0.80;;;32.20;61.70;;;;;;6167444;23;20521;-80
2022/08/24 09:28:47;;;;;;;1.40;0.80;;;32.40;62.90;;;;;;6179993;23;20505;-80
2022/08/24 09:31:29;;;;;;;1.50;0.80;;;32.40;62.10;;;;;;6165128;23;20555;-81
2022/08/24 09:34:08;;;;;;;1.47;0.80;;;32.30;61.10;;;;;;6188733;23;20428;-81
2022/08/24 09:36:48;;;;;;;1.47;0.80;;;32.20;62.10;;;;;;6164737;23;20447;-79
2022/08/24 09:39:36;;;;;;;1.40;0.80;;;32.30;63.00;;;;;;6179741;23;20426;-79
2022/08/24 09:42:35;;;;;;;1.43;0.80;;;32.50;61.20;;;;;;6168602;23;20483;-79
2022/08/24 09:45:27;;;;;;;1.43;0.80;;;32.70;61.50;;;;;;6181442;23;20335;-79
2022/08/24 09:48:15;;;;;;;1.40;0.80;;;32.90;60.20;;;;;;6167763;23;20211;-84
2022/08/24 09:51:22;;;;;;;1.47;0.90;;;33.10;61.10;;;;;;6181114;23;20268;-79
2022/08/24 09:54:16;;;;;;;1.43;0.80;;;33.30;60.80;;;;;;6163434;23;20596;-82
2022/08/24 09:57:03;;;;;;;1.77;1.37;;;33.50;59.90;;;;;;6164927;23;20471;-79
2022/08/24 10:00:04;;;;;;;1.40;0.80;;;33.70;60.20;;;;;;6180450;23;20177;-80
2022/08/24 10:02:48;;;;;;;1.40;0.80;;;34.00;59.30;;;;;;6166450;23;20594;-80
2022/08/24 10:05:27;;;;;;;1.50;1.03;;;34.10;59.80;;;;;;6181340;23;20254;-81
2022/08/24 10:08:02;;;;;;;1.43;0.80;;;34.20;58.20;;;;;;6165119;23;20597;-83
2022/08/24 10:10:41;;;;;;;1.43;0.80;;;34.30;58.70;;;;;;6183330;23;20543;-80
2022/08/24 10:13:24;;;;;;;1.48;0.90;;;34.50;59.00;;;;;;6180639;23;20239;-80
2022/08/24 10:16:07;;;;;;;1.45;0.82;;;34.60;58.20;;;;;;6166190;23;20231;-81
2022/08/24 10:18:45;;;;;;;1.47;0.90;;;34.60;58.90;;;;;;6179442;23;20280;-80
2022/08/24 10:21:34;;;;;;;1.60;1.30;;;34.70;57.80;;;;;;6173100;23;20218;-79
2022/08/24 10:24:23;;;;;;;1.40;0.80;;;34.80;57.50;;;;;;6178891;23;20675;-80
2022/08/24 10:27:06;;;;;;;1.42;0.80;;;34.80;58.90;;;;;;6164750;23;20291;-79
2022/08/24 10:29:50;;;;;;;1.40;0.80;;;34.90;57.60;;;;;;6179058;23;20180;-80
2022/08/24 10:32:37;;;;;;;1.47;0.80;;;35.00;57.10;;;;;;6164768;23;20318;-80
2022/08/24 10:35:09;;;;;;;1.40;0.80;;;35.10;57.70;;;;;;6181164;23;20654;-79
2022/08/24 10:40:57;;;;;;;1.40;0.80;;;35.40;56.60;;;;;;6182800;23;20243;-80
2022/08/24 10:43:45;;;;;;;1.42;0.80;;;35.50;55.50;;;;;;6165950;23;20196;-82
2022/08/24 10:46:39;;;;;;;1.40;0.80;;;35.50;56.10;;;;;;6165010;23;20264;-80
2022/08/24 10:49:39;;;;;;;1.40;0.80;;;35.40;56.10;;;;;;6180337;23;20164;-80
2022/08/24 10:52:28;;;;;;;1.40;0.80;;;35.50;57.20;;;;;;6182691;23;20208;-81
2022/08/24 10:54:56;;;;;;;1.40;0.80;;;35.70;55.90;;;;;;6182483;23;20231;-80
2022/08/24 10:57:34;;;;;;;1.40;0.80;;;35.80;55.80;;;;;;6165222;23;20207;-81
2022/08/24 11:00:08;;;;;;;1.40;0.80;;;36.00;55.50;;;;;;6180488;23;20184;-80
2022/08/24 11:02:39;;;;;;;1.40;0.80;;;36.20;55.60;;;;;;6163414;23;20496;-80
2022/08/24 11:05:09;;;;;;;1.40;0.80;;;36.30;54.70;;;;;;6179115;23;20204;-81
2022/08/24 11:07:37;;;;;;;1.40;0.80;;;36.30;54.20;;;;;;6164070;23;20747;-80
2022/08/24 11:10:08;;;;;;;1.40;0.80;;;36.40;55.50;;;;;;6190983;23;20247;-80
2022/08/24 11:12:39;;;;;;;1.40;0.80;;;36.50;54.70;;;;;;6163367;23;20769;-80
2022/08/24 11:15:26;;;;;;;1.40;0.80;;;36.50;53.50;;;;;;6179815;23;20258;-83
2022/08/24 11:17:57;;;;;;;1.40;0.98;;;36.30;53.50;;;;;;6164338;23;20218;-81
2022/08/24 11:20:31;;;;;;;2.22;1.80;;;36.40;54.40;;;;;;6180282;23;20176;-80
2022/08/24 11:23:06;;;;;;;1.40;0.80;;;36.50;53.50;;;;;;6163688;23;20768;-80
2022/08/24 11:25:37;;;;;;;1.40;0.80;;;36.60;54.20;;;;;;6180753;23;20704;-81
2022/08/24 11:28:08;;;;;;;1.40;0.80;;;36.60;52.00;;;;;;6161761;23;20235;-79
2022/08/24 11:30:39;;;;;;;1.40;0.80;;;36.70;52.60;;;;;;6179910;23;20512;-81
2022/08/24 11:33:27;;;;;;;1.40;0.80;;;36.80;53.40;;;;;;6159462;23;20207;-80
2022/08/24 11:35:54;;;;;;;1.40;0.80;;;36.90;54.30;;;;;;6163342;23;20518;-81
2022/08/24 11:38:25;;;;;;;1.40;0.90;;;37.00;52.30;;;;;;6179164;23;20238;-82
2022/08/24 11:40:57;;;;;;;1.40;0.90;;;36.90;52.50;;;;;;6180352;23;20168;-80
2022/08/24 11:43:41;;;;;;;1.40;0.80;;;36.70;52.50;;;;;;6176823;23;20191;-81
2022/08/24 11:46:23;;;;;;;1.40;0.80;;;36.70;52.10;;;;;;6161564;23;20620;-81
2022/08/24 11:49:02;;;;;;;1.40;0.80;;;36.90;54.20;;;;;;6175983;23;20168;-81
2022/08/24 11:51:44;;;;;;;1.40;0.80;;;37.00;52.60;;;;;;6163129;23;20214;-84
2022/08/24 11:54:23;;;;;;;1.40;0.98;;;37.10;53.80;;;;;;6179310;23;20175;-82
2022/08/24 11:57:07;;;;;;;1.40;0.80;;;37.20;51.50;;;;;;6163194;23;20295;-81
2022/08/24 11:59:42;;;;;;;1.40;0.80;;;37.30;52.60;;;;;;6179900;23;20238;-83
2022/08/24 12:02:16;;;;;;;1.40;0.80;;;37.50;52.60;;;;;;6163737;23;20678;-80
2022/08/24 12:04:52;;;;;;;1.40;0.80;;;37.70;53.10;;;;;;6180768;23;20195;-83
2022/08/24 12:07:31;;;;;;;1.40;0.80;;;37.60;51.20;;;;;;6181371;23;20186;-81
2022/08/24 12:10:11;;;;;;;1.40;0.80;;;37.40;51.90;;;;;;6184168;23;20176;-81
2022/08/24 12:12:45;;;;;;;1.40;0.80;;;37.30;50.90;;;;;;6165278;23;20231;-81
2022/08/24 12:15:18;;;;;;;1.40;0.80;;;37.00;51.70;;;;;;6183295;23;20200;-83
2022/08/24 12:17:48;;;;;;;1.50;1.00;;;37.20;51.40;;;;;;6169325;23;20211;-82
2022/08/24 12:20:26;;;;;;;1.40;0.90;;;37.20;52.00;;;;;;6180280;23;20245;-82
2022/08/24 12:23:01;;;;;;;1.40;0.80;;;37.50;51.10;;;;;;6165983;23;20222;-81
2022/08/24 12:28:22;;;;;;;1.33;0.80;;;37.40;50.00;;;;;;6188388;23;20309;-81
2022/08/24 12:30:52;;;;;;;1.40;0.80;;;37.00;51.00;;;;;;6166632;23;20182;-79
2022/08/24 12:33:28;;;;;;;1.40;0.98;;;36.90;51.10;;;;;;6177503;23;20203;-80
2022/08/24 12:36:04;;;;;;;1.33;0.80;;;37.10;51.20;;;;;;6165535;23;20234;-81
2022/08/24 12:38:35;;;;;;;1.40;0.90;;;37.10;50.80;;;;;;6178762;23;20164;-80
2022/08/24 12:41:08;;;;;;;1.40;0.80;;;37.30;51.20;;;;;;6174218;23;20191;-79
2022/08/24 12:43:45;;;;;;;1.40;0.80;;;37.40;52.00;;;;;;6182273;23;20180;-81
2022/08/24 12:46:14;;;;;;;1.40;0.80;;;37.50;51.80;;;;;;6167838;23;20497;-82
2022/08/24 12:48:49;;;;;;;1.40;0.80;;;37.40;49.90;;;;;;6179277;23;20643;-79
2022/08/24 12:51:26;;;;;;;1.40;0.90;;;37.00;49.70;;;;;;6173380;23;20211;-81
2022/08/24 12:54:19;;;;;;;1.50;1.10;;;36.90;51.00;;;;;;6178783;23;20167;-80
2022/08/24 12:57:25;;;;;;;1.40;0.80;;;37.00;50.40;;;;;;6169538;23;20619;-81
2022/08/24 13:00:10;;;;;;;1.40;0.80;;;37.20;50.20;;;;;;6186245;23;20218;-81
2022/08/24 13:02:44;;;;;;;1.40;0.90;;;37.30;52.00;;;;;;6161232;23;20671;-81
2022/08/24 13:05:15;;;;;;;1.63;1.00;;;37.00;49.70;;;;;;6181173;23;20200;-81
2022/08/24 13:07:47;;;;;;;1.40;0.80;;;37.00;51.80;;;;;;6165056;23;20291;-79
2022/08/24 13:10:36;;;;;;;1.40;0.80;;;37.10;52.40;;;;;;6189952;23;20571;-82
2022/08/24 13:13:19;;;;;;;1.40;0.80;;;37.30;49.80;;;;;;6166084;23;20208;-81
2022/08/24 13:16:08;;;;;;;1.40;0.80;;;37.40;51.10;;;;;;6186997;23;20303;-79
2022/08/24 13:19:08;;;;;;;1.38;0.80;;;37.70;50.30;;;;;;6184133;23;20199;-81
2022/08/24 13:21:53;;;;;;;1.35;0.80;;;37.70;48.80;;;;;;6154089;23;20225;-81
2022/08/24 13:25:02;;;;;;;1.40;0.80;;;37.50;49.40;;;;;;6197988;23;20255;-80
2022/08/24 13:28:03;;;;;;;1.40;0.80;;;37.30;50.30;;;;;;6164082;23;20266;-81
2022/08/24 13:31:00;;;;;;;1.40;0.80;;;37.40;50.00;;;;;;6181967;23;20816;-81
2022/08/24 13:33:33;;;;;;;1.40;0.80;;;37.40;49.40;;;;;;6166167;23;20207;-81
2022/08/24 13:36:08;;;;;;;1.40;0.80;;;37.20;50.30;;;;;;6180447;23;20661;-80
2022/08/24 13:39:11;;;;;;;1.40;0.80;;;37.00;49.70;;;;;;6187199;23;20627;-81